Time;durP1;ratioP1;P1;durP2;ratioP2;P2;SDS_P1;SDS_P2;PMS_P1;PMS_P2;Temp;Humidity;BMP_temperature;BMP_pressure;BME280_temperature;BME280_humidity;BME280_pressure;Samples;Min_cycle;Max_cycle;Signal;HPM_P1;HPM_P2
2023/05/09 00:00:43;;;;;;;22.95;12.43;;;;;;;13.57;100.00;97992.56;5094289;28;20023;-76
2023/05/09 00:03:08;;;;;;;20.77;12.45;;;;;;;13.62;100.00;97986.88;5111151;28;20030;-75
2023/05/09 00:05:34;;;;;;;21.05;12.40;;;;;;;13.62;100.00;97991.41;5094382;28;20399;-76
2023/05/09 00:08:00;;;;;;;20.60;12.80;;;;;;;13.64;100.00;97995.69;5111023;28;20062;-76
2023/05/09 00:10:26;;;;;;;20.80;11.80;;;;;;;13.72;100.00;97989.81;5111299;28;20019;-76
2023/05/09 00:12:51;;;;;;;19.15;11.90;;;;;;;13.65;100.00;97977.75;5111029;28;20164;-75
2023/05/09 00:15:17;;;;;;;22.55;12.20;;;;;;;13.67;100.00;97982.03;5110821;28;20118;-75
2023/05/09 00:17:43;;;;;;;20.83;12.45;;;;;;;13.65;100.00;97975.06;5094079;28;20098;-75
2023/05/09 00:20:11;;;;;;;20.20;11.77;;;;;;;13.53;100.00;97956.09;5110689;28;20123;-75
2023/05/09 00:22:37;;;;;;;20.45;12.45;;;;;;;13.53;100.00;97969.53;5094294;28;20035;-75
2023/05/09 00:25:02;;;;;;;19.30;12.07;;;;;;;13.54;100.00;97965.88;5091066;28;20483;-75
2023/05/09 00:27:29;;;;;;;24.25;12.93;;;;;;;13.53;100.00;97969.53;5111371;28;20034;-76
2023/05/09 00:29:55;;;;;;;24.73;13.18;;;;;;;13.56;100.00;97963.97;5110848;28;20047;-76
2023/05/09 00:32:21;;;;;;;21.85;12.48;;;;;;;13.47;100.00;97956.50;5110521;28;20093;-76
2023/05/09 00:34:46;;;;;;;21.85;12.68;;;;;;;13.51;100.00;97963.41;5093627;28;20118;-76
2023/05/09 00:37:12;;;;;;;26.20;13.77;;;;;;;13.42;100.00;97964.00;5110648;28;20034;-76
2023/05/09 00:39:37;;;;;;;25.30;14.93;;;;;;;13.31;100.00;97968.38;5111926;28;20027;-76
2023/05/09 00:42:03;;;;;;;27.35;14.45;;;;;;;13.18;100.00;97957.59;5093539;28;20023;-76
2023/05/09 00:44:29;;;;;;;26.30;14.43;;;;;;;13.29;100.00;97983.75;5110528;28;20034;-75
2023/05/09 00:46:54;;;;;;;27.70;14.45;;;;;;;13.26;100.00;97976.72;5110413;28;20024;-75
2023/05/09 00:49:20;;;;;;;30.80;14.85;;;;;;;13.13;100.00;97986.56;5093424;28;20023;-75
2023/05/09 00:51:46;;;;;;;28.60;15.10;;;;;;;13.12;100.00;97984.84;5110570;28;20420;-75
2023/05/09 00:54:12;;;;;;;25.20;14.20;;;;;;;13.13;100.00;97989.28;5110614;28;20050;-75
2023/05/09 00:56:38;;;;;;;25.73;14.98;;;;;;;13.19;100.00;97994.25;5110461;28;20011;-74
2023/05/09 00:59:05;;;;;;;33.05;15.32;;;;;;;13.10;100.00;97986.78;5093130;28;20034;-75
2023/05/09 01:01:30;;;;;;;26.60;15.38;;;;;;;13.07;100.00;97985.09;5110271;28;20110;-76
2023/05/09 01:03:56;;;;;;;32.10;14.63;;;;;;;13.01;100.00;97995.41;5110283;28;20104;-75
2023/05/09 01:06:47;;;;;;;26.77;15.38;;;;;;;13.02;100.00;97989.03;5110147;28;20019;-76
2023/05/09 01:09:42;;;;;;;28.20;14.65;;;;;;;13.00;100.00;97990.97;5111181;28;20023;-75
2023/05/09 01:12:14;;;;;;;38.15;15.68;;;;;;;12.99;100.00;97995.47;5110278;28;20483;-75
2023/05/09 01:15:11;;;;;;;29.00;14.48;;;;;;;13.03;100.00;97998.84;5111382;28;20023;-76
2023/05/09 01:17:59;;;;;;;32.53;14.13;;;;;;;12.93;100.00;97995.00;5109835;28;20032;-75
2023/05/09 01:20:38;;;;;;;23.02;12.50;;;;;;;12.95;100.00;98002.00;5109843;28;20080;-76
2023/05/09 01:23:31;;;;;;;32.45;14.02;;;;;;;12.92;100.00;98007.56;5110120;28;20043;-76
2023/05/09 01:26:25;;;;;;;34.80;14.68;;;;;;;12.92;100.00;98004.06;5109984;28;20047;-76
2023/05/09 01:29:16;;;;;;;25.42;13.25;;;;;;;12.91;100.00;98005.88;5092991;28;20059;-77
2023/05/09 01:31:43;;;;;;;22.02;12.68;;;;;;;12.86;100.00;98004.41;5092603;28;20047;-75
2023/05/09 01:34:10;;;;;;;23.73;12.20;;;;;;;12.83;100.00;98002.78;5111124;28;20028;-75
2023/05/09 01:36:37;;;;;;;25.20;12.43;;;;;;;12.87;100.00;98003.47;5109753;28;20092;-75
2023/05/09 01:39:03;;;;;;;30.40;12.15;;;;;;;12.92;100.00;97998.69;5096659;28;20032;-75
2023/05/09 01:41:30;;;;;;;23.95;11.75;;;;;;;12.91;100.00;98002.31;5113897;28;20096;-75
2023/05/09 01:43:58;;;;;;;24.23;11.27;;;;;;;12.92;100.00;97996.84;5115210;28;20471;-76
2023/05/09 01:46:24;;;;;;;21.63;10.73;;;;;;;12.97;100.00;97999.22;5096965;28;20476;-75
2023/05/09 01:48:51;;;;;;;17.17;10.13;;;;;;;12.88;100.00;97992.63;5113650;28;20057;-75
2023/05/09 01:51:17;;;;;;;21.00;10.95;;;;;;;12.88;100.00;98003.38;5113828;28;20114;-74
2023/05/09 01:53:45;;;;;;;20.23;11.52;;;;;;;12.79;100.00;98008.47;5113739;28;20030;-75
2023/05/09 01:56:11;;;;;;;18.38;10.85;;;;;;;12.75;100.00;98006.94;5097107;28;20031;-75
2023/05/09 01:58:37;;;;;;;18.45;10.27;;;;;;;12.74;100.00;98005.19;5113931;28;20536;-75
2023/05/09 02:01:07;;;;;;;17.70;10.18;;;;;;;12.64;100.00;98018.34;5114475;28;20069;-75
2023/05/09 02:03:33;;;;;;;15.82;9.65;;;;;;;12.67;100.00;98004.75;5113294;28;20031;-75
2023/05/09 02:06:00;;;;;;;13.77;8.43;;;;;;;12.68;100.00;98002.91;5113503;28;20084;-75
2023/05/09 02:08:26;;;;;;;18.77;9.40;;;;;;;12.67;100.00;98009.25;5096517;28;20464;-75
2023/05/09 02:10:52;;;;;;;14.60;8.95;;;;;;;12.72;100.00;98015.19;5096325;28;20091;-75
2023/05/09 02:13:17;;;;;;;13.73;8.65;;;;;;;12.59;100.00;98007.03;5113867;28;20032;-75
2023/05/09 02:15:43;;;;;;;14.63;8.95;;;;;;;12.45;100.00;98002.53;5113556;28;20176;-75
2023/05/09 02:18:09;;;;;;;17.27;8.90;;;;;;;12.52;100.00;98006.53;5096730;28;20032;-76
2023/05/09 02:20:34;;;;;;;13.65;7.95;;;;;;;12.40;100.00;98006.44;5113343;28;20383;-76
2023/05/09 02:23:00;;;;;;;14.32;8.43;;;;;;;12.39;100.00;98005.59;5113489;28;20019;-76
2023/05/09 02:25:26;;;;;;;18.38;9.27;;;;;;;12.42;100.00;98008.09;5113544;28;20494;-76
2023/05/09 02:27:52;;;;;;;19.02;7.78;;;;;;;12.48;100.00;98009.53;5096369;28;20030;-76
2023/05/09 02:30:23;;;;;;;19.73;8.38;;;;;;;12.53;100.00;98018.16;5095769;28;20020;-75
2023/05/09 02:32:49;;;;;;;14.18;7.75;;;;;;;12.58;100.00;98009.81;5096329;28;20106;-75
2023/05/09 02:35:15;;;;;;;17.30;8.35;;;;;;;12.55;100.00;98010.84;5113171;28;20092;-75
2023/05/09 02:37:41;;;;;;;14.50;7.43;;;;;;;12.67;100.00;98018.16;5113099;28;20051;-75
2023/05/09 02:40:08;;;;;;;17.58;7.43;;;;;;;12.68;100.00;98017.19;5076738;28;20060;-75
2023/05/09 02:42:33;;;;;;;12.70;7.07;;;;;;;12.74;100.00;98011.44;5096011;28;20521;-75
2023/05/09 02:44:59;;;;;;;11.02;6.40;;;;;;;12.70;100.00;98003.69;5112629;28;20047;-76
2023/05/09 02:47:25;;;;;;;14.43;6.85;;;;;;;12.67;100.00;97991.31;5113922;28;20368;-75
2023/05/09 02:49:50;;;;;;;8.82;6.18;;;;;;;12.61;100.00;97985.47;5094973;28;20179;-76
2023/05/09 02:52:16;;;;;;;9.38;6.15;;;;;;;12.49;100.00;97989.78;5112889;28;20085;-76
2023/05/09 02:54:41;;;;;;;11.55;6.28;;;;;;;12.46;100.00;97987.28;5113741;28;20019;-75
2023/05/09 02:57:07;;;;;;;13.27;5.80;;;;;;;12.45;100.00;97994.50;5112521;28;20067;-75
2023/05/09 02:59:32;;;;;;;10.77;6.07;;;;;;;12.47;100.00;98003.28;5095421;28;20039;-75
2023/05/09 03:01:58;;;;;;;9.07;5.72;;;;;;;12.44;100.00;98005.31;5095421;28;20030;-76
2023/05/09 03:04:25;;;;;;;8.35;5.60;;;;;;;12.43;100.00;98017.84;5113630;28;20023;-76
2023/05/09 03:06:51;;;;;;;11.13;6.65;;;;;;;12.36;100.00;98016.53;5112604;28;20019;-75
2023/05/09 03:09:16;;;;;;;11.68;6.50;;;;;;;12.28;100.00;98023.28;5112159;28;20024;-76
2023/05/09 03:11:42;;;;;;;13.07;6.43;;;;;;;12.16;100.00;98024.91;5112421;28;20460;-75
2023/05/09 03:14:09;;;;;;;11.88;7.07;;;;;;;12.15;100.00;98035.75;5112223;28;20080;-75
2023/05/09 03:16:35;;;;;;;15.82;7.65;;;;;;;12.12;100.00;98043.97;5112134;28;20088;-76
2023/05/09 03:19:00;;;;;;;10.18;6.25;;;;;;;12.03;100.00;98044.53;5112301;28;20024;-75
2023/05/09 03:21:26;;;;;;;10.32;6.53;;;;;;;12.01;100.00;98041.91;5111972;28;20035;-75
2023/05/09 03:23:51;;;;;;;12.73;6.30;;;;;;;12.06;100.00;98052.38;5095175;28;20011;-76
2023/05/09 03:26:17;;;;;;;12.35;6.07;;;;;;;11.95;100.00;98058.38;5112084;28;20522;-76
2023/05/09 03:28:42;;;;;;;13.18;6.93;;;;;;;11.92;100.00;98058.56;5112134;28;20016;-76
2023/05/09 03:31:08;;;;;;;11.93;6.10;;;;;;;11.93;100.00;98066.50;5112949;28;20063;-77
2023/05/09 03:33:34;;;;;;;10.80;6.60;;;;;;;11.93;100.00;98060.28;5112016;28;20019;-76
2023/05/09 03:35:59;;;;;;;8.73;6.03;;;;;;;11.93;100.00;98079.06;5112361;28;20023;-76
2023/05/09 03:38:25;;;;;;;9.15;5.10;;;;;;;11.84;100.00;98064.34;5094787;28;20020;-77
2023/05/09 03:40:53;;;;;;;8.20;5.50;;;;;;;11.82;100.00;98063.59;5094192;28;20512;-75
2023/05/09 03:43:18;;;;;;;14.27;5.00;;;;;;;11.82;100.00;98074.31;5111700;28;20032;-75
2023/05/09 03:45:44;;;;;;;9.32;5.32;;;;;;;11.84;100.00;98076.91;5111540;28;20084;-76
2023/05/09 03:48:10;;;;;;;6.32;4.30;;;;;;;11.72;100.00;98069.59;5111773;28;20031;-74
2023/05/09 03:50:36;;;;;;;7.53;4.38;;;;;;;11.59;100.00;98081.94;5111434;28;20020;-76
2023/05/09 03:53:02;;;;;;;5.40;3.80;;;;;;;11.58;100.00;98086.41;5094492;28;20091;-75
2023/05/09 03:55:27;;;;;;;6.45;3.80;;;;;;;11.62;100.00;98092.47;5111552;28;20081;-75
2023/05/09 03:57:53;;;;;;;6.53;4.40;;;;;;;11.53;100.00;98093.00;5111563;28;20020;-74
2023/05/09 04:00:20;;;;;;;5.65;4.00;;;;;;;11.44;100.00;98099.75;5093707;28;20032;-75
2023/05/09 04:02:45;;;;;;;8.00;3.92;;;;;;;11.51;100.00;98110.97;5094017;28;20426;-76
2023/05/09 04:05:11;;;;;;;6.13;3.72;;;;;;;11.42;100.00;98094.47;5111602;28;20032;-76
2023/05/09 04:07:36;;;;;;;8.48;3.97;;;;;;;11.37;100.00;98107.25;5094303;28;20088;-76
2023/05/09 04:10:02;;;;;;;6.80;4.55;;;;;;;11.43;100.00;98109.59;5111687;28;20595;-78
2023/05/09 04:12:28;;;;;;;5.47;3.72;;;;;;;11.47;100.00;98107.63;5112129;28;20126;-79
2023/05/09 04:14:56;;;;;;;5.10;3.65;;;;;;;11.57;100.00;98121.31;5095289;28;20032;-86
2023/05/09 04:17:47;;;;;;;;;;;;;;;;;;;;;
2023/05/09 04:20:30;;;;;;;5.65;2.90;;;;;;;11.44;100.00;98100.59;5087941;28;20040;-85
2023/05/09 04:22:59;;;;;;;3.03;2.60;;;;;;;11.32;100.00;98095.94;5067379;28;20024;-86
2023/05/09 04:25:24;;;;;;;11.38;2.90;;;;;;;11.45;100.00;98122.88;5071861;28;20035;-82
2023/05/09 04:27:52;;;;;;;9.88;4.88;;;;;;;11.49;100.00;98124.47;5076725;28;20028;-77
2023/05/09 04:30:18;;;;;;;6.00;4.22;;;;;;;11.50;100.00;98122.66;5056215;28;20523;-72
2023/05/09 04:32:44;;;;;;;5.28;3.63;;;;;;;11.58;100.00;98123.94;5090273;28;20032;-84
2023/05/09 04:35:12;;;;;;;4.40;2.75;;;;;;;11.41;100.00;98122.19;5056929;28;20040;-83
2023/05/09 04:37:38;;;;;;;16.52;11.18;;;;;;;11.60;100.00;98134.53;5056616;28;20028;-76
2023/05/09 04:40:04;;;;;;;3.95;3.10;;;;;;;11.54;100.00;98130.41;5055997;28;20132;-80
2023/05/09 04:42:34;;;;;;;3.45;2.30;;;;;;;11.53;100.00;98130.50;5072199;28;20040;-78
2023/05/09 04:45:00;;;;;;;3.10;2.55;;;;;;;11.49;100.00;98129.81;5056228;28;20123;-84
2023/05/09 04:47:25;;;;;;;4.10;3.08;;;;;;;11.56;100.00;98133.00;5072859;28;20207;-83
2023/05/09 04:49:51;;;;;;;4.30;2.90;;;;;;;11.62;100.00;98144.25;5074562;28;20522;-77
2023/05/09 04:52:17;;;;;;;3.63;2.63;;;;;;;11.53;100.00;98134.06;5093299;28;20028;-75
2023/05/09 04:54:42;;;;;;;3.72;2.50;;;;;;;11.50;100.00;98130.69;5110004;28;20031;-75
2023/05/09 04:57:08;;;;;;;4.00;2.80;;;;;;;11.48;100.00;98135.25;5093044;28;20395;-75
2023/05/09 04:59:34;;;;;;;5.60;3.45;;;;;;;11.51;100.00;98135.06;5110165;28;20024;-75
2023/05/09 05:02:00;;;;;;;4.93;3.20;;;;;;;11.58;100.00;98137.34;5110116;28;20034;-74
2023/05/09 05:04:25;;;;;;;5.32;2.78;;;;;;;11.49;100.00;98140.53;5110356;28;20050;-74
2023/05/09 05:06:51;;;;;;;6.78;3.10;;;;;;;11.56;100.00;98141.06;5111252;28;20039;-74
2023/05/09 05:09:16;;;;;;;7.07;3.25;;;;;;;11.54;100.00;98149.16;5110118;28;20645;-74
2023/05/09 05:11:42;;;;;;;4.13;2.90;;;;;;;11.55;100.00;98148.22;5109841;28;20414;-76
2023/05/09 05:14:07;;;;;;;2.90;2.42;;;;;;;11.47;100.00;98141.56;5110202;28;20027;-76
2023/05/09 05:16:33;;;;;;;3.88;2.88;;;;;;;11.43;100.00;98143.56;5093242;28;20133;-75
2023/05/09 05:18:58;;;;;;;5.47;3.50;;;;;;;11.44;100.00;98148.81;5110133;28;20035;-76
2023/05/09 05:21:23;;;;;;;5.05;3.25;;;;;;;11.47;100.00;98153.16;5110208;28;20027;-76
2023/05/09 05:23:49;;;;;;;4.40;2.53;;;;;;;11.50;100.00;98147.63;5111044;28;20155;-75
2023/05/09 05:26:14;;;;;;;4.03;2.50;;;;;;;11.49;100.00;98147.69;5110836;28;20020;-74
2023/05/09 05:28:40;;;;;;;2.88;1.80;;;;;;;11.48;100.00;98140.59;5092997;28;20034;-76
2023/05/09 05:31:05;;;;;;;2.03;1.83;;;;;;;11.31;100.00;98142.44;5109663;28;20466;-76
2023/05/09 05:33:31;;;;;;;3.58;1.60;;;;;;;11.39;100.00;98140.19;5109990;28;20537;-76
2023/05/09 05:35:57;;;;;;;3.28;2.00;;;;;;;11.48;100.00;98149.50;5111118;28;20028;-77
2023/05/09 05:38:22;;;;;;;4.05;2.10;;;;;;;11.58;100.00;98157.91;5092453;28;20053;-75
2023/05/09 05:40:48;;;;;;;6.03;2.55;;;;;;;11.65;100.00;98151.25;5110992;28;20045;-75
2023/05/09 05:43:13;;;;;;;2.70;1.80;;;;;;;11.66;100.00;98156.50;5092557;28;20043;-75
2023/05/09 05:45:39;;;;;;;2.80;1.92;;;;;;;11.73;100.00;98157.94;5092671;28;20031;-74
2023/05/09 05:48:04;;;;;;;2.58;1.92;;;;;;;11.61;100.00;98144.31;5109852;28;20575;-75
2023/05/09 05:50:30;;;;;;;2.80;1.92;;;;;;;11.50;100.00;98141.41;5109643;28;20019;-75
2023/05/09 05:52:55;;;;;;;77.80;35.28;;;;;;;11.51;100.00;98149.34;5092634;28;20023;-76
2023/05/09 05:55:20;;;;;;;2.55;2.28;;;;;;;11.30;100.00;98132.66;5109577;28;20069;-75
2023/05/09 05:57:47;;;;;;;22.73;12.90;;;;;;;11.49;100.00;98155.72;5109686;28;20062;-76
2023/05/09 06:00:13;;;;;;;3.08;2.15;;;;;;;11.59;100.00;98159.63;5109214;28;20383;-75
2023/05/09 06:02:46;;;;;;;6.55;2.42;;;;;;;11.62;100.00;98172.88;5109619;28;20027;-75
2023/05/09 06:05:12;;;;;;;3.13;1.83;;;;;;;11.53;100.00;98159.97;5092830;28;20479;-76
2023/05/09 06:07:39;;;;;;;37.05;19.73;;;;;;;11.59;100.00;98167.69;5109448;28;20114;-75
2023/05/09 06:10:06;;;;;;;46.85;25.17;;;;;;;11.58;100.00;98161.44;5092748;28;20027;-74
2023/05/09 06:12:32;;;;;;;4.88;2.35;;;;;;;11.26;100.00;98143.59;5109343;28;20124;-74
2023/05/09 06:14:57;;;;;;;4.72;2.83;;;;;;;11.38;100.00;98154.50;5092689;28;20068;-75
2023/05/09 06:17:23;;;;;;;6.40;2.92;;;;;;;11.49;100.00;98164.66;5109430;28;20038;-74
2023/05/09 06:19:48;;;;;;;8.07;3.03;;;;;;;11.42;100.00;98163.25;5092561;28;20031;-75
2023/05/09 06:22:14;;;;;;;7.53;4.45;;;;;;;11.44;100.00;98169.41;5110673;28;20050;-75
2023/05/09 06:24:39;;;;;;;48.20;26.42;;;;;;;11.37;100.00;98165.31;5093749;28;20111;-76
2023/05/09 06:27:05;;;;;;;22.00;11.77;;;;;;;11.31;100.00;98160.31;5096223;28;20027;-75
2023/05/09 06:29:30;;;;;;;7.32;3.42;;;;;;;11.29;100.00;98156.81;5113142;28;20147;-76
2023/05/09 06:31:56;;;;;;;4.20;2.28;;;;;;;11.05;100.00;98140.28;5113252;28;20044;-76
2023/05/09 06:34:21;;;;;;;2.97;1.98;;;;;;;11.10;100.00;98145.41;5113183;28;20035;-76
2023/05/09 06:36:47;;;;;;;2.75;2.10;;;;;;;10.97;100.00;98131.84;5095998;28;20062;-75
2023/05/09 06:39:12;;;;;;;3.65;2.38;;;;;;;11.14;100.00;98155.00;5113146;28;20032;-75
2023/05/09 06:41:37;;;;;;;1.85;1.40;;;;;;;11.08;100.00;98153.50;5112757;28;20093;-75
2023/05/09 06:44:03;;;;;;;6.63;4.13;;;;;;;11.23;100.00;98160.72;5114310;28;20062;-75
2023/05/09 06:46:29;;;;;;;25.08;13.45;;;;;;;11.30;100.00;98155.88;5112759;28;20039;-75
2023/05/09 06:48:54;;;;;;;9.60;5.95;;;;;;;11.30;100.00;98139.81;5113809;28;20027;-76
2023/05/09 06:51:20;;;;;;;9.48;4.10;;;;;;;11.42;100.00;98150.72;5095617;28;20387;-75
2023/05/09 06:53:45;;;;;;;10.68;5.80;;;;;;;11.50;100.00;98146.75;5112566;28;20024;-74
2023/05/09 06:56:11;;;;;;;7.03;4.75;;;;;;;11.60;100.00;98147.94;5112865;28;20054;-74
2023/05/09 06:58:36;;;;;;;28.15;15.98;;;;;;;11.54;100.00;98138.44;5112487;28;20556;-76
2023/05/09 07:01:03;;;;;;;25.35;13.98;;;;;;;11.54;100.00;98132.22;5112735;28;20497;-75
2023/05/09 07:03:29;;;;;;;3.00;1.90;;;;;;;11.48;100.00;98135.25;5112757;28;20027;-76
2023/05/09 07:05:57;;;;;;;5.32;3.42;;;;;;;11.39;100.00;98125.91;5095594;28;20032;-75
2023/05/09 07:08:23;;;;;;;1.98;1.77;;;;;;;11.41;100.00;98137.44;5112731;28;20499;-75
2023/05/09 07:10:49;;;;;;;13.85;8.23;;;;;;;11.51;100.00;98149.34;5112287;28;20019;-75
2023/05/09 07:13:14;;;;;;;43.13;22.55;;;;;;;11.52;100.00;98137.69;5112313;28;20031;-76
2023/05/09 07:15:40;;;;;;;24.80;11.68;;;;;;;11.44;100.00;98137.25;5095350;28;20118;-75
2023/05/09 07:18:05;;;;;;;6.00;3.85;;;;;;;11.42;100.00;98131.97;5112474;28;20391;-76
2023/05/09 07:20:31;;;;;;;17.63;8.80;;;;;;;11.50;100.00;98136.03;5111977;28;20024;-76
2023/05/09 07:22:57;;;;;;;3.05;2.30;;;;;;;11.46;100.00;98130.00;5112312;28;20024;-75
2023/05/09 07:25:22;;;;;;;2.63;1.85;;;;;;;11.47;100.00;98133.53;5112235;28;20395;-75
2023/05/09 07:27:48;;;;;;;3.28;2.22;;;;;;;11.52;100.00;98132.31;5113390;28;20028;-76
2023/05/09 07:30:14;;;;;;;9.35;1.75;;;;;;;11.65;100.00;98149.44;5113098;28;20028;-76
2023/05/09 07:32:39;;;;;;;1.95;1.20;;;;;;;11.52;100.00;98139.50;5111948;28;20030;-76
2023/05/09 07:35:05;;;;;;;1.70;1.10;;;;;;;11.47;100.00;98141.56;5111646;28;20039;-76
2023/05/09 07:37:30;;;;;;;3.15;1.30;;;;;;;11.58;100.00;98144.50;5111806;28;20098;-76
2023/05/09 07:39:56;;;;;;;1.02;0.90;;;;;;;11.58;100.00;98149.84;5111610;28;20028;-76
2023/05/09 07:42:21;;;;;;;2.45;1.02;;;;;;;11.53;100.00;98141.22;5111757;28;20035;-75
2023/05/09 07:44:47;;;;;;;52.42;30.90;;;;;;;11.65;100.00;98141.41;5111648;28;20410;-75
2023/05/09 07:47:13;;;;;;;63.38;35.60;;;;;;;11.63;100.00;98142.44;5111603;28;20525;-75
2023/05/09 07:49:39;;;;;;;6.20;3.78;;;;;;;11.64;100.00;98131.63;5111350;28;20026;-75
2023/05/09 07:52:05;;;;;;;9.95;5.70;;;;;;;11.75;100.00;98126.53;5111679;28;20076;-75
2023/05/09 07:54:30;;;;;;;7.18;4.28;;;;;;;11.82;100.00;98127.91;5111481;28;20019;-75
2023/05/09 07:56:56;;;;;;;1.77;1.42;;;;;;;11.82;100.00;98133.28;5111258;28;20521;-76
2023/05/09 07:59:21;;;;;;;3.47;1.50;;;;;;;11.79;100.00;98121.88;5112402;28;20027;-76
2023/05/09 08:01:47;;;;;;;2.20;1.80;;;;;;;11.99;100.00;98136.81;5111176;28;20434;-76
2023/05/09 08:04:13;;;;;;;16.67;11.70;;;;;;;11.83;100.00;98120.75;5112303;28;20098;-76
2023/05/09 08:06:38;;;;;;;3.75;2.03;;;;;;;12.02;100.00;98134.81;5111215;28;20462;-77
2023/05/09 08:09:04;;;;;;;2.08;1.58;;;;;;;11.98;100.00;98127.03;5111075;28;20023;-76
2023/05/09 08:11:32;;;;;;;7.40;1.50;;;;;;;12.15;100.00;98132.28;5111025;28;20028;-76
2023/05/09 08:13:57;;;;;;;2.38;1.77;;;;;;;12.22;100.00;98125.59;5110965;28;20172;-76
2023/05/09 08:16:23;;;;;;;12.63;6.28;;;;;;;12.27;100.00;98124.38;5111073;28;20147;-75
2023/05/09 08:18:48;;;;;;;9.93;5.93;;;;;;;12.31;100.00;98117.84;5093536;28;20505;-76
2023/05/09 08:21:14;;;;;;;23.13;11.75;;;;;;;12.32;100.00;98106.19;5112380;28;20035;-76
2023/05/09 08:23:40;;;;;;;3.30;2.20;;;;;;;12.26;100.00;98108.38;5111214;28;20027;-76
2023/05/09 08:26:05;;;;;;;7.07;3.90;;;;;;;12.34;100.00;98101.56;5110990;28;20020;-76
2023/05/09 08:28:31;;;;;;;2.28;1.70;;;;;;;12.34;100.00;98096.22;5110788;28;20392;-76
2023/05/09 08:30:56;;;;;;;8.27;3.90;;;;;;;12.49;100.00;98102.47;5110463;28;20040;-75
2023/05/09 08:33:22;;;;;;;1.27;1.17;;;;;;;12.41;100.00;98091.34;5110801;28;20187;-75
2023/05/09 08:35:55;;;;;;;1.88;1.40;;;;;;;12.34;100.00;98092.66;5110736;28;20023;-76
2023/05/09 08:38:20;;;;;;;;;;;;;;;12.58;100.00;98096.53;5111178;28;20028;-76
2023/05/09 08:40:46;;;;;;;1.30;1.10;;;;;;;12.77;100.00;98085.53;5110484;28;19919;-76
2023/05/09 08:43:12;;;;;;;2.20;1.42;;;;;;;13.04;100.00;98083.84;5093640;28;20035;-75
2023/05/09 08:46:06;;;;;;;2.38;1.40;;;;;;;12.60;100.00;98070.50;5093785;28;20039;-74
2023/05/09 08:48:33;;;;;;;10.32;4.82;;;;;;;12.24;100.00;98064.69;5085331;28;20054;-74
2023/05/09 08:50:59;;;;;;;6.00;2.65;;;;;;;12.25;100.00;98083.34;5093183;28;20019;-73
2023/05/09 08:53:25;;;;;;;22.08;10.40;;;;;;;12.58;100.00;98098.38;5111542;28;20024;-75
2023/05/09 08:55:51;;;;;;;11.35;5.78;;;;;;;12.80;100.00;98096.94;5110088;28;20016;-75
2023/05/09 08:58:18;;;;;;;2.53;1.55;;;;;;;12.73;100.00;98084.00;5110048;28;20030;-74
2023/05/09 09:00:44;;;;;;;2.00;1.50;;;;;;;12.83;100.00;98074.41;5092880;28;20106;-75
2023/05/09 09:03:09;;;;;;;1.50;1.30;;;;;;;12.60;100.00;98066.94;5109875;28;20126;-74
2023/05/09 09:05:36;;;;;;;1.27;1.00;;;;;;;12.75;100.00;98077.59;5110127;28;20023;-75
2023/05/09 09:08:04;;;;;;;2.88;1.60;;;;;;;12.69;100.00;98061.00;5092673;28;20339;-75
2023/05/09 09:10:31;;;;;;;2.33;1.88;;;;;;;13.03;100.00;98080.28;5109969;28;20015;-75
2023/05/09 09:12:58;;;;;;;1.60;1.27;;;;;;;13.32;100.00;98077.59;5092571;28;20019;-75
2023/05/09 09:15:25;;;;;;;1.23;0.80;;;;;;;13.61;100.00;98057.72;5109924;28;20047;-75
2023/05/09 09:17:55;;;;;;;6.55;4.20;;;;;;;13.33;100.00;98047.91;5110006;28;20030;-75
2023/05/09 09:20:21;;;;;;;11.20;5.90;;;;;;;13.21;100.00;98045.16;5089116;28;20114;-75
2023/05/09 09:22:48;;;;;;;2.97;2.08;;;;;;;13.35;100.00;98058.59;5109847;28;20387;-75
2023/05/09 09:25:13;;;;;;;1.55;1.45;;;;;;;13.86;100.00;98054.28;5110270;28;20031;-75
2023/05/09 09:27:40;;;;;;;12.00;4.53;;;;;;;14.23;100.00;98042.75;5109667;28;20502;-75
2023/05/09 09:30:10;;;;;;;5.28;3.20;;;;;;;14.27;100.00;98036.19;5092884;28;20073;-75
2023/05/09 09:32:38;;;;;;;12.10;4.25;;;;;;;14.58;100.00;98040.34;5109417;28;20056;-75
2023/05/09 09:35:05;;;;;;;3.25;1.63;;;;;;;14.87;100.00;98033.75;5092961;28;20027;-74
2023/05/09 09:37:38;;;;;;;1.30;1.20;;;;;;;14.88;100.00;97999.59;5092904;28;20386;-74
2023/05/09 09:40:07;;;;;;;3.63;1.88;;;;;;;14.68;100.00;98008.22;5109431;28;20088;-74
2023/05/09 09:42:46;;;;;;;2.00;1.63;;;;;;;14.82;100.00;98005.41;5092550;28;20027;-74
2023/05/09 09:45:14;;;;;;;0.50;0.50;;;;;;;14.50;100.00;97995.09;5107924;28;20066;-74
2023/05/09 09:47:40;;;;;;;3.03;1.38;;;;;;;14.92;100.00;98009.19;5109655;28;20027;-76
2023/05/09 09:50:16;;;;;;;2.20;1.63;;;;;;;15.13;100.00;98010.31;5092418;28;20200;-74
2023/05/09 09:52:53;;;;;;;6.60;3.22;;;;;;;15.20;100.00;98008.88;5092478;28;20031;-74
2023/05/09 09:55:19;;;;;;;4.70;2.13;;;;;;;15.20;100.00;98001.66;5109661;28;20092;-75
2023/05/09 09:57:46;;;;;;;6.13;2.05;;;;;;;15.44;100.00;98000.84;5092435;28;20024;-74
2023/05/09 10:00:14;;;;;;;19.60;7.43;;;;;;;15.22;100.00;98024.94;5096553;28;20100;-74
2023/05/09 10:02:54;;;;;;;2.80;2.00;;;;;;;14.99;100.00;98000.53;5096665;28;20053;-73
2023/05/09 10:05:25;;;;;;;5.10;2.13;;;;;;;14.66;100.00;98002.97;5096620;28;20039;-74
2023/05/09 10:07:58;;;;;;;2.72;1.83;;;;;;;14.67;100.00;98023.53;5113407;28;20031;-74
2023/05/09 10:10:32;;;;;;;2.40;1.77;;;;;;;14.52;100.00;98014.69;5096361;28;20028;-74
2023/05/09 10:13:00;;;;;;;2.88;1.95;;;;;;;14.54;100.00;98004.69;5113246;28;20029;-74
2023/05/09 10:15:27;;;;;;;5.18;3.10;;;;;;;14.39;100.00;97992.31;5113216;28;20093;-74
2023/05/09 10:17:56;;;;;;;5.03;3.38;;;;;;;14.67;100.00;97998.44;5096015;28;20031;-74
2023/05/09 10:20:21;;;;;;;2.17;1.73;;;;;;;14.80;100.00;97988.47;5096021;28;20034;-75
2023/05/09 10:22:48;;;;;;;5.65;2.35;;;;;;;14.67;100.00;98001.13;5113243;28;20403;-75
2023/05/09 10:25:20;;;;;;;2.55;1.60;;;;;;;14.41;100.00;97992.19;5096005;28;20065;-74
2023/05/09 10:27:46;;;;;;;2.33;1.50;;;;;;;14.47;100.00;97984.56;5113262;28;20027;-74
2023/05/09 10:30:22;;;;;;;2.30;1.70;;;;;;;14.57;100.00;97979.38;5113847;28;20020;-75
2023/05/09 10:33:03;;;;;;;2.10;1.50;;;;;;;14.60;100.00;97985.41;5096114;28;20419;-75
2023/05/09 10:35:45;;;;;;;4.57;1.48;;;;;;;14.62;100.00;97972.69;5112904;28;20034;-74
2023/05/09 10:38:11;;;;;;;2.85;2.03;;;;;;;14.80;100.00;97988.47;5112819;28;20118;-75
2023/05/09 10:40:37;;;;;;;2.95;1.90;;;;;;;14.55;100.00;97984.84;5095740;28;20024;-75
2023/05/09 10:43:04;;;;;;;2.10;1.80;;;;;;;14.20;100.00;97983.75;5112639;28;20073;-74
2023/05/09 10:45:30;;;;;;;1.73;1.40;;;;;;;13.84;100.00;97978.22;5095599;28;20522;-74
2023/05/09 10:47:56;;;;;;;3.80;2.10;;;;;;;13.89;100.00;97986.84;5095434;28;20088;-74
2023/05/09 10:50:22;;;;;;;6.75;2.92;;;;;;;13.98;100.00;97994.28;5112603;28;20475;-74
2023/05/09 10:53:06;;;;;;;9.07;4.05;;;;;;;14.04;100.00;97996.53;5112663;28;20035;-74
2023/05/09 10:56:00;;;;;;;10.70;3.00;;;;;;;14.09;100.00;97995.25;5112490;28;20469;-75
2023/05/09 10:58:35;;;;;;;8.48;3.55;;;;;;;13.91;100.00;97982.19;5112609;28;20035;-74
2023/05/09 11:01:01;;;;;;;2.83;2.33;;;;;;;13.86;100.00;97990.59;5112287;28;20035;-75
2023/05/09 11:03:28;;;;;;;4.05;2.78;;;;;;;13.75;100.00;97995.00;5112172;28;20497;-75
2023/05/09 11:05:56;;;;;;;5.18;3.53;;;;;;;13.72;100.00;98001.41;5112595;28;20024;-75
2023/05/09 11:08:26;;;;;;;4.22;3.00;;;;;;;13.65;100.00;98010.00;5095091;28;20019;-74
2023/05/09 11:10:59;;;;;;;4.63;2.72;;;;;;;13.61;100.00;98003.09;5094667;28;20522;-75
2023/05/09 11:13:29;;;;;;;2.90;2.10;;;;;;;13.38;100.00;97996.59;5111938;28;20038;-74
2023/05/09 11:15:58;;;;;;;4.05;2.30;;;;;;;13.56;100.00;98008.78;5112232;28;20084;-74
2023/05/09 11:18:23;;;;;;;2.42;2.03;;;;;;;13.52;100.00;97999.22;5111797;28;20032;-74
2023/05/09 11:20:50;;;;;;;3.33;2.70;;;;;;;13.38;100.00;97996.59;5112186;28;20032;-73
2023/05/09 11:23:20;;;;;;;4.57;3.50;;;;;;;13.46;100.00;98027.34;5112004;28;20499;-73